This is the latest recevied weather packets stored in our database for station/object VK2BLR. If no packets are shown the sender has not sent any weather packets the latest 10 day(s).
| Time | Temp. | Humidity | Pressure | Rain* | Wind** | Luminosity | Snow |
|---|---|---|---|---|---|---|---|
| 1777505781 | 22.78° C | 42% | 1028.1 hPa | 0 mm | - | - | - |
| 1777504880 | 22.22° C | 45% | 1027.9 hPa | 0 mm | - | - | - |
| 1777503980 | 22.22° C | 49% | 1027.8 hPa | 0 mm | - | - | - |
| 1777503080 | 21.67° C | 50% | 1027.8 hPa | 0 mm | - | - | - |
| 1777502180 | 21.11° C | 50% | 1027.7 hPa | 0 mm | - | - | - |
| 1777501279 | 20.56° C | 51% | 1027.7 hPa | 0 mm | - | - | - |
| 1777500380 | 20° C | 53% | 1027.5 hPa | 0 mm | - | - | - |
| 1777499481 | 19.44° C | 55% | 1027.3 hPa | 0 mm | - | - | - |
| 1777498580 | 17.78° C | 61% | 1027.2 hPa | 0 mm | - | - | - |
| 1777497680 | 15.56° C | 69% | 1027 hPa | 0 mm | - | - | - |
| 1777496779 | 15.56° C | 66% | 1027 hPa | 0 mm | - | - | - |
| 1777495880 | 16.11° C | 66% | 1026.8 hPa | 0 mm | - | - | - |
| 1777494980 | 16.11° C | 67% | 1026.6 hPa | 0 mm | - | - | - |
| 1777494079 | 16.11° C | 67% | 1026.5 hPa | 0 mm | - | - | - |
| 1777493180 | 16.11° C | 68% | 1026.2 hPa | 0 mm | - | - | - |
| 1777492280 | 16.11° C | 68% | 1026.2 hPa | 0 mm | - | - | - |
| 1777491381 | 16.11° C | 68% | 1026 hPa | 0 mm | - | - | - |
| 1777490481 | 16.67° C | 67% | 1025.9 hPa | 0 mm | - | - | - |
| 1777489581 | 16.67° C | 67% | 1025.9 hPa | 0 mm | - | - | - |
| 1777488680 | 16.67° C | 67% | 1026 hPa | 0 mm | - | - | - |
| 1777487781 | 16.67° C | 66% | 1026 hPa | 0 mm | - | - | - |
| 1777486881 | 16.67° C | 66% | 1025.7 hPa | 0 mm | - | - | - |
| 1777485981 | 16.67° C | 67% | 1025.7 hPa | 0 mm | - | - | - |
| 1777485080 | 16.67° C | 67% | 1025.8 hPa | 0 mm | - | - | - |
| 1777484180 | 16.67° C | 67% | 1025.7 hPa | 0 mm | - | - | - |
* Rain latest hour (hover to see other rain measurements)
** Current wind speed in m/s (hover to see current wind gust speed)